ADDS METAR Data INFO
IDs: Format: Raw Decoded Include TAF

Data at: 0306 UTC 17 Jan 2018

KHSB 170255Z AUTO 24003KT 7SM -SN OVC024 M13/M16 A3070 RMK AO2 T11331160
KHSB 170235Z AUTO 00000KT 7SM -SN OVC024 M14/M16 A3069 RMK AO2 T11361161
KHSB 170215Z AUTO 00000KT 7SM -SN OVC026 M14/M16 A3069 RMK AO2 T11391164
KHSB 170155Z AUTO 00000KT 7SM -SN BKN026 OVC050 M14/M16 A3069 RMK AO2 T11401165
KHSB 170135Z AUTO 00000KT 7SM -SN SCT026 OVC050 M14/M16 A3069 RMK AO2 T11411164
KHSB 170115Z AUTO 00000KT 7SM -SN OVC050 M15/M17 A3069 RMK AO2 T11481168
KHSB 170055Z AUTO 29003KT 5SM -SN OVC050 M14/M17 A3068 RMK AO2 T11441172
KHSB 170035Z AUTO 00000KT 5SM -SN BKN050 M14/M17 A3068 RMK AO2 T11441169
KHSB 170015Z AUTO 00000KT 7SM -SN BKN050 M14/M17 A3068 RMK AO2 T11421173
KHSB 162355Z AUTO 00000KT 7SM -SN SCT034 BKN050 M14/M17 A3068 RMK AO2 T11411175 11118 21141
KHSB 162335Z AUTO 31003KT 7SM -SN BKN034 M13/M17 A3068 RMK AO2 T11351170
KHSB 162315Z AUTO 31005KT 7SM -SN BKN034 M13/M17 A3067 RMK AO2 T11321171
KHSB 162255Z AUTO 31005KT 10SM OVC034 M13/M17 A3068 RMK AO2 T11281170
KHSB 162235Z AUTO 30008KT 10SM -SN OVC034 M13/M17 A3067 RMK AO2 T11281172
KHSB 162215Z AUTO 28008KT 10SM -SN OVC034 M13/M17 A3067 RMK AO2 T11281172
KHSB 162155Z AUTO 32005KT 10SM -SN OVC036 M13/M17 A3066 RMK AO2 T11261175
KHSB 162135Z AUTO 30009KT 10SM -SN OVC034 M13/M17 A3065 RMK AO2 T11261174
KHSB 162115Z AUTO 32007KT 10SM OVC034 M12/M17 A3065 RMK AO2 T11241175
KHSB 162055Z AUTO 30005KT 10SM OVC034 M12/M18 A3065 RMK AO2 T11251177
KHSB 162035Z AUTO 32007KT 10SM OVC032 M12/M18 A3065 RMK AO2 T11241180
KHSB 162015Z AUTO 29008KT 10SM OVC032 M12/M18 A3064 RMK AO2 T11211180
KHSB 161955Z AUTO 29003KT 10SM OVC032 M12/M18 A3064 RMK AO2 T11181181
KHSB 161935Z AUTO 32006KT 10SM OVC032 M12/M18 A3064 RMK AO2 T11211180
KHSB 161915Z AUTO 28007KT 10SM OVC032 M12/M19 A3065 RMK AO2 T11241186
KHSB 161855Z AUTO 27008KT 10SM SCT034 M13/M19 A3065 RMK AO2 T11301190
KHSB 161835Z AUTO 27009KT 10SM SCT034 M13/M19 A3065 RMK AO2 T11311190
KHSB 161815Z AUTO 29008KT 10SM CLR M14/M19 A3065 RMK AO2 T11361194
KHSB 161755Z AUTO 27010KT 10SM CLR M14/M19 A3066 RMK AO2 T11361192 11135 21181
KHSB 161735Z AUTO 28006KT 10SM CLR M14/M19 A3067 RMK AO2 T11381194
KHSB 161715Z AUTO 27007KT 10SM CLR M14/M20 A3067 RMK AO2 T11411199
KHSB 161655Z AUTO 29007KT 10SM CLR M14/M20 A3068 RMK AO2 T11431198
KHSB 161635Z AUTO 28008KT 10SM CLR M14/M20 A3069 RMK AO2 T11451199
KHSB 161615Z AUTO 30009KT 10SM CLR M15/M20 A3069 RMK AO2 T11481200
KHSB 161555Z AUTO 28012KT 10SM CLR M15/M20 A3070 RMK AO2 T11521201
KHSB 161535Z AUTO 30009KT 10SM CLR M15/M20 A3069 RMK AO2 T11531201
KHSB 161515Z AUTO 28008KT 10SM CLR M16/M20 A3068 RMK AO2 T11561200
KHSB 161455Z AUTO 28006KT 10SM CLR M16/M20 A3068 RMK AO2 T11601202
KHSB 161435Z AUTO 29006KT 10SM CLR M16/M20 A3068 RMK AO2 T11631201
KHSB 161415Z AUTO 26004KT 10SM CLR M17/M20 A3067 RMK AO2 T11661201
KHSB 161355Z AUTO 23003KT 10SM CLR M17/M20 A3067 RMK AO2 T11701203
KHSB 161335Z AUTO 28006KT 10SM CLR M17/M20 A3067 RMK AO2 T11751203
KHSB 161315Z AUTO 30005KT 10SM CLR M17/M20 A3066 RMK AO2 T11711201
KHSB 161255Z AUTO 29006KT 10SM CLR M17/M20 A3066 RMK AO2 T11731202
KHSB 161235Z AUTO 29005KT 10SM CLR M17/M20 A3065 RMK AO2 T11701201
KHSB 161215Z AUTO 30005KT 10SM CLR M16/M20 A3065 RMK AO2 T11651200
KHSB 161155Z AUTO 29004KT 10SM CLR M16/M20 A3064 RMK AO2 70001 T11651196 11112 21165
KHSB 161135Z AUTO 30003KT 10SM CLR M16/M20 A3065 RMK AO2 T11591196
KHSB 161115Z AUTO 31004KT 10SM CLR M16/M20 A3064 RMK AO2 T11571196
KHSB 161055Z AUTO 30005KT 10SM CLR M15/M19 A3064 RMK AO2 T11511191
KHSB 161035Z AUTO 32006KT 10SM CLR M15/M19 A3062 RMK AO2 T11471191
KHSB 161015Z AUTO 32007KT 10SM CLR M14/M19 A3062 RMK AO2 T11431189
KHSB 160955Z AUTO 31008KT 10SM CLR M14/M18 A3062 RMK AO2 T11371185
KHSB 160935Z AUTO 32007KT 10SM CLR M14/M18 A3062 RMK AO2 T11361185
KHSB 160915Z AUTO 32009KT 10SM CLR M13/M18 A3061 RMK AO2 T11321181
KHSB 160855Z AUTO 32009G15KT 10SM CLR M13/M18 A3061 RMK AO2 T11301180
KHSB 160835Z AUTO 32008KT 10SM CLR M12/M17 A3060 RMK AO2 T11251175
KHSB 160815Z AUTO 31013KT 10SM CLR M12/M18 A3060 RMK AO2 T11231176
KHSB 160755Z AUTO 31009KT 10SM CLR M12/M17 A3060 RMK AO2 T11211172
KHSB 160735Z AUTO 30008KT 10SM CLR M12/M17 A3059 RMK AO2 T11201172
KHSB 160715Z AUTO 32009KT 10SM CLR M12/M17 A3058 RMK AO2 T11171172
KHSB 160655Z AUTO 32010KT 10SM CLR M11/M17 A3059 RMK AO2 T11151166
KHSB 160635Z AUTO 31009KT 10SM CLR M11/M17 A3058 RMK AO2 T11131168
KHSB 160615Z AUTO 32011KT 10SM SCT120 M11/M17 A3057 RMK AO2 T11121168
KHSB 160555Z AUTO 31010KT 10SM SCT120 M11/M17 A3057 RMK AO2 T11121166 11061 21112 410121112
KHSB 160535Z AUTO 31009KT 10SM SCT120 M11/M17 A3057 RMK AO2 T11101168
KHSB 160515Z AUTO 33009KT 10SM BKN120 M11/M17 A3057 RMK AO2 T11101166
KHSB 160455Z AUTO 32013G16KT 10SM OVC120 M11/M16 A3057 RMK AO2 T11081165
KHSB 160435Z AUTO 32011G19KT 10SM OVC110 M11/M16 A3057 RMK AO2 T11071160
KHSB 160415Z AUTO 31017G21KT 10SM BKN120 M10/M16 A3056 RMK AO2 T11051160
KHSB 160355Z AUTO 32015G19KT 10SM SCT120 M10/M16 A3055 RMK AO2 T11001158
KHSB 160335Z AUTO 33012G19KT 10SM SCT120 M10/M16 A3054 RMK AO2 T10961156
KHSB 160315Z AUTO 32011G17KT 10SM OVC120 M09/M15 A3053 RMK AO2 T10931152
KHSB 160255Z AUTO 32012G19KT 10SM OVC120 M09/M15 A3053 RMK AO2 T10921152
KHSB 160235Z AUTO 32012G18KT 10SM OVC110 M09/M15 A3053 RMK AO2 T10881146
KHSB 160215Z AUTO 32015G23KT 10SM OVC100 M08/M14 A3052 RMK AO2 T10851142
KHSB 160155Z AUTO 33013G20KT 10SM OVC100 M08/M13 A3050 RMK AO2 T10791134
KHSB 160135Z AUTO 33011G19KT 10SM OVC090 M07/M12 A3049 RMK AO2 T10721125
KHSB 160115Z AUTO 33010KT 10SM OVC090 M07/M13 A3048 RMK AO2 T10701128
KHSB 160055Z AUTO 33011KT 10SM OVC090 M07/M13 A3047 RMK AO2 T10701130
KHSB 160035Z AUTO 33006KT 10SM OVC080 M07/M13 A3046 RMK AO2 T10671129
KHSB 160015Z AUTO 32007KT 10SM OVC080 M06/M12 A3046 RMK AO2 T10651125
KHSB 152355Z AUTO 33006KT 10SM SCT080 OVC085 M06/M11 A3045 RMK AO2 60001 T10611115 11012 21061
KHSB 152335Z AUTO 33009KT 10SM SCT028 SCT065 OVC080 M06/M11 A3044 RMK AO2 T10581110
KHSB 152315Z AUTO 33008KT 10SM BKN028 OVC065 M05/M10 A3043 RMK AO2 T10551105
KHSB 152255Z AUTO 34007KT 10SM OVC026 M05/M10 A3042 RMK AO2 T10501099
KHSB 152235Z AUTO 33006KT 10SM BKN026 BKN036 OVC042 M05/M09 A3042 RMK AO2 T10481095
KHSB 152215Z AUTO 32007KT 10SM BKN026 OVC036 M04/M09 A3041 RMK AO2 T10451092
KHSB 152155Z AUTO 34008KT 10SM OVC026 M04/M09 A3040 RMK AO2 T10401088
KHSB 152135Z AUTO 32008KT 10SM OVC026 M04/M08 A3039 RMK AO2 T10371084
KHSB 152115Z AUTO 32009KT 10SM OVC024 M04/M08 A3038 RMK AO2 T10371083
KHSB 152055Z AUTO 31007KT 10SM OVC024 M04/M08 A3037 RMK AO2 60001 T10381083
KHSB 152035Z AUTO 31008KT 10SM OVC024 M04/M08 A3037 RMK AO2 T10401085
KHSB 152015Z AUTO 31011KT 10SM OVC020 M04/M08 A3036 RMK AO2 T10391083
KHSB 151955Z AUTO 32011KT 10SM OVC018 M03/M07 A3034 RMK AO2 T10351072
KHSB 151935Z AUTO 32010G15KT 10SM OVC014 M03/M06 A3034 RMK AO2 T10301063
KHSB 151915Z AUTO 32011G17KT 10SM OVC012 M02/M04 A3034 RMK AO2 T10201041
KHSB 151855Z AUTO 28011G14KT 10SM OVC010 M01/M03 A3032 RMK AO2 P0001 T10121027
KHSB 151835Z AUTO 26008KT 10SM OVC010 M01/M03 A3032 RMK AO2 P0001 T10131027
KHSB 151815Z AUTO 25009KT 3SM -SN BKN010 OVC014 M01/M02 A3032 RMK AO2 T10151025
KHSB 151755Z AUTO 24006KT 1 1/4SM -SN BKN008 OVC011 M02/M02 A3032 RMK AO2 T10161025 11016 21045
KHSB 151735Z AUTO 25005KT 1 3/4SM -SN BKN009 BKN027 OVC033 M02/M03 A3032 RMK AO2 T10171030
KHSB 151715Z AUTO 25006KT 1 3/4SM -SN BKN009 OVC018 M02/M03 A3033 RMK AO2 T10201031
KHSB 151655Z AUTO 23006KT 1 1/4SM -SN BKN009 BKN014 OVC019 M02/M03 A3033 RMK AO2 T10221032
KHSB 151635Z AUTO 24008KT 1 1/4SM -SN SCT009 OVC016 M02/M03 A3034 RMK AO2 T10251035
KHSB 151615Z AUTO 23006KT 1 1/4SM -SN BKN013 OVC018 M03/M04 A3033 RMK AO2 T10271038
KHSB 151555Z AUTO 23008KT 1 3/4SM -SN SCT010 BKN015 OVC029 M03/M04 A3032 RMK AO2 T10301042
KHSB 151535Z AUTO 23007KT 2SM -SN SCT011 BKN017 OVC032 M03/M04 A3032 RMK AO2 T10321045
KHSB 151515Z AUTO 23007KT 7SM -SN SCT009 BKN017 OVC075 M03/M05 A3032 RMK AO2 T10351046